createdAt,value
2023-05-24T00:49:50.112Z,13.30
2023-05-24T00:51:54.357Z,13.30
2023-05-24T00:53:59.719Z,13.30
2023-05-24T00:56:04.457Z,13.20
2023-05-24T00:58:16.284Z,13.20
2023-05-24T01:00:20.870Z,13.20
2023-05-24T01:02:25.653Z,13.00
2023-05-24T01:04:33.160Z,13.00
2023-05-24T01:06:49.956Z,13.10
2023-05-24T01:09:04.313Z,13.00
2023-05-24T01:11:11.395Z,13.00
2023-05-24T01:13:19.774Z,13.00
2023-05-24T01:15:26.455Z,13.00
2023-05-24T01:17:33.347Z,13.00
2023-05-24T01:19:53.949Z,12.90
2023-05-24T01:22:03.809Z,12.90
2023-05-24T01:24:14.395Z,12.80
2023-05-24T01:54:06.742Z,12.90
2023-05-24T01:56:10.637Z,12.90
2023-05-24T01:58:14.949Z,12.90
2023-05-24T02:00:20.944Z,12.90
2023-05-24T02:02:25.518Z,12.80
2023-05-24T02:04:30.626Z,12.80
2023-05-24T02:06:35.638Z,12.80
2023-05-24T02:08:39.884Z,12.80
2023-05-24T02:10:45.562Z,12.90
2023-05-24T02:54:15.387Z,12.30
2023-05-24T02:56:23.971Z,12.30
2023-05-24T02:58:30.763Z,12.20
2023-05-24T03:00:39.892Z,12.20
2023-05-24T03:02:49.483Z,12.10
2023-05-24T03:04:57.022Z,12.10
2023-05-24T03:07:05.800Z,12.00
2023-05-24T03:09:15.393Z,12.00
2023-05-24T03:11:26.574Z,11.90
2023-05-24T03:13:36.703Z,12.00
2023-05-24T03:31:25.524Z,11.90
2023-05-24T03:33:31.046Z,11.90
2023-05-24T03:35:36.399Z,11.90
2023-05-24T03:37:43.031Z,11.90
2023-05-24T03:39:51.874Z,11.90
2023-05-24T03:42:03.320Z,11.90
2023-05-24T03:44:11.924Z,11.70
2023-05-24T03:46:20.541Z,11.70
2023-05-24T03:48:29.732Z,11.60
2023-05-24T03:50:39.072Z,11.70
2023-05-24T03:52:49.209Z,11.70
2023-05-24T03:54:57.648Z,11.60
2023-05-24T03:57:06.680Z,11.50
2023-05-24T03:59:15.662Z,11.60
2023-05-24T04:01:33.392Z,11.50
2023-05-24T04:03:47.891Z,11.60
2023-05-24T04:05:56.552Z,11.60
2023-05-24T04:08:06.001Z,11.60
2023-05-24T04:10:14.831Z,11.70
2023-05-24T04:12:23.620Z,11.90
2023-05-24T04:14:34.257Z,12.00
2023-05-24T04:16:44.261Z,12.00
2023-05-24T04:18:58.306Z,12.10
2023-05-24T04:21:06.914Z,12.20
2023-05-24T04:23:18.827Z,12.30
2023-05-24T04:25:28.545Z,12.30
2023-05-24T04:27:41.616Z,12.30
2023-05-24T04:29:52.397Z,12.40
2023-05-24T04:32:02.782Z,12.50
2023-05-24T04:34:16.089Z,12.70
2023-05-24T04:36:25.256Z,12.90
2023-05-24T04:38:34.180Z,12.90
2023-05-24T04:40:42.897Z,13.10
2023-05-24T04:42:52.319Z,13.10
2023-05-24T04:45:01.433Z,13.10
2023-05-24T04:47:10.554Z,13.20
2023-05-24T04:49:27.012Z,13.20
2023-05-24T04:51:40.476Z,13.20
2023-05-24T04:53:56.689Z,13.20
2023-05-24T04:56:06.474Z,13.30
2023-05-24T04:58:15.447Z,13.30
2023-05-24T05:00:25.493Z,13.40
2023-05-24T05:02:34.069Z,13.50
2023-05-24T05:04:44.613Z,13.50
2023-05-24T05:06:53.192Z,13.60
2023-05-24T05:09:01.765Z,13.70
2023-05-24T05:11:11.837Z,13.80
2023-05-24T05:13:20.283Z,13.90
2023-05-24T05:15:32.270Z,13.90
2023-05-24T05:17:41.453Z,13.90
2023-05-24T05:19:57.217Z,14.00
2023-05-24T05:22:10.790Z,14.10
2023-05-24T05:24:27.609Z,14.10
2023-05-24T05:41:52.021Z,14.50
2023-05-24T05:55:21.228Z,14.50
2023-05-24T05:57:35.027Z,14.60
2023-05-24T05:59:46.818Z,14.60
2023-05-24T06:01:57.558Z,14.80
2023-05-24T06:04:07.206Z,14.90
2023-05-24T06:06:17.128Z,15.10
2023-05-24T06:08:27.520Z,15.20
2023-05-24T06:10:36.808Z,15.20
2023-05-24T06:12:48.350Z,15.10
2023-05-24T06:14:59.030Z,15.20
2023-05-24T06:17:13.930Z,15.20
2023-05-24T06:19:23.237Z,15.20
2023-05-24T06:21:35.068Z,15.10
2023-05-24T06:23:47.927Z,15.10
2023-05-24T06:25:59.982Z,15.20
2023-05-24T06:28:30.154Z,15.30
2023-05-24T06:30:45.032Z,15.50
2023-05-24T06:32:58.808Z,15.50
2023-05-24T06:35:08.666Z,15.60
2023-05-24T06:37:21.701Z,15.60
2023-05-24T06:39:30.683Z,15.80
2023-05-24T06:41:44.931Z,15.90
2023-05-24T06:44:01.091Z,16.00
2023-05-24T06:46:11.016Z,16.20
2023-05-24T06:48:20.875Z,16.40
2023-05-24T06:50:30.037Z,16.50
2023-05-24T06:52:41.200Z,16.60
2023-05-24T06:54:51.190Z,16.80
2023-05-24T06:57:01.553Z,17.00
2023-05-24T06:59:14.624Z,17.10
2023-05-24T07:01:25.527Z,16.90
2023-05-24T07:03:34.912Z,16.80
2023-05-24T07:05:43.399Z,16.90
2023-05-24T07:07:53.092Z,16.80
2023-05-24T07:10:02.635Z,16.80
2023-05-24T07:12:11.317Z,16.80
2023-05-24T07:14:22.919Z,16.90
2023-05-24T07:16:31.813Z,17.20
2023-05-24T07:18:43.593Z,17.40
2023-05-24T07:20:52.212Z,17.40
2023-05-24T07:23:02.520Z,17.40
2023-05-24T07:25:11.691Z,17.50
2023-05-24T07:27:22.348Z,17.60
2023-05-24T07:29:39.090Z,17.70
2023-05-24T07:31:48.390Z,17.50
2023-05-24T07:33:58.271Z,17.50
2023-05-24T07:36:08.208Z,17.60
2023-05-24T07:38:16.961Z,17.70
2023-05-24T07:40:26.314Z,17.90
2023-05-24T07:42:36.008Z,18.00
2023-05-24T07:44:47.322Z,18.00
2023-05-24T07:46:57.661Z,18.00
2023-05-24T07:49:07.086Z,18.30
2023-05-24T07:51:16.102Z,18.40
2023-05-24T07:53:26.889Z,18.60
2023-05-24T07:55:36.634Z,18.50
2023-05-24T07:57:48.203Z,18.40
2023-05-24T07:59:59.614Z,18.40
2023-05-24T08:02:13.427Z,18.30
2023-05-24T08:04:22.776Z,18.10
2023-05-24T08:06:34.455Z,17.90
2023-05-24T08:08:43.171Z,17.70
2023-05-24T08:10:52.057Z,17.40
2023-05-24T08:13:01.158Z,17.30
2023-05-24T08:15:19.149Z,17.00
2023-05-24T08:17:29.086Z,16.90
2023-05-24T08:19:38.891Z,16.80
2023-05-24T08:21:48.439Z,16.70
2023-05-24T08:24:01.508Z,16.80
2023-05-24T08:26:13.879Z,16.70
2023-05-24T08:28:23.104Z,16.80
2023-05-24T08:30:37.170Z,16.80
2023-05-24T08:32:46.972Z,16.80
2023-05-24T08:35:03.572Z,16.80
2023-05-24T08:37:16.702Z,16.80
2023-05-24T08:39:27.064Z,16.60
2023-05-24T08:41:39.730Z,16.50
2023-05-24T08:43:48.108Z,16.40
2023-05-24T08:45:58.596Z,16.30
2023-05-24T08:48:07.559Z,16.30
2023-05-24T08:52:38.369Z,16.30
2023-05-24T08:54:49.040Z,16.60
2023-05-24T08:56:58.568Z,17.00
2023-05-24T08:59:07.444Z,17.00
2023-05-24T09:01:19.433Z,17.30
2023-05-24T09:03:28.412Z,17.60
2023-05-24T09:05:36.794Z,17.90
2023-05-24T09:07:46.627Z,18.30
2023-05-24T09:10:01.712Z,18.60
2023-05-24T09:12:16.756Z,18.70
2023-05-24T09:14:30.919Z,18.80
2023-05-24T09:16:42.108Z,18.80
2023-05-24T09:18:52.065Z,18.70
2023-05-24T09:21:00.997Z,18.50
2023-05-24T09:23:10.275Z,18.40
2023-05-24T09:25:20.197Z,18.60
2023-05-24T09:27:29.205Z,18.70
2023-05-24T09:29:41.138Z,19.00
2023-05-24T09:31:52.822Z,19.20
2023-05-24T09:34:01.816Z,19.50
2023-05-24T09:36:11.734Z,19.80
2023-05-24T09:38:24.227Z,19.70
2023-05-24T09:40:34.446Z,19.50
2023-05-24T09:42:43.295Z,19.50
2023-05-24T09:44:52.848Z,19.50
2023-05-24T09:47:08.073Z,19.60
2023-05-24T09:49:16.937Z,19.90
2023-05-24T09:51:26.206Z,20.20
2023-05-24T09:53:35.481Z,20.30
2023-05-24T09:55:43.537Z,20.30
2023-05-24T09:57:55.592Z,20.10
2023-05-24T10:00:04.412Z,20.10
2023-05-24T10:02:22.897Z,20.30
2023-05-24T10:04:40.231Z,20.60
2023-05-24T10:06:49.737Z,20.80
2023-05-24T10:08:58.995Z,21.00
2023-05-24T10:11:09.144Z,21.10
2023-05-24T10:13:19.360Z,21.20
2023-05-24T10:15:28.722Z,21.10
2023-05-24T10:17:39.129Z,21.10
2023-05-24T10:19:47.728Z,21.20
2023-05-24T10:21:55.938Z,21.10
2023-05-24T10:24:09.090Z,21.10
2023-05-24T10:26:20.395Z,21.30
2023-05-24T10:28:28.838Z,21.40
2023-05-24T10:30:39.802Z,21.40
2023-05-24T10:32:50.935Z,21.40
2023-05-24T10:34:59.959Z,21.50
2023-05-24T10:37:08.992Z,21.60
2023-05-24T10:39:17.784Z,21.80
2023-05-24T10:41:26.981Z,21.80
2023-05-24T10:43:36.483Z,21.70
2023-05-24T10:45:48.070Z,21.60
2023-05-24T10:47:58.811Z,21.50
2023-05-24T10:50:08.655Z,21.10
2023-05-24T10:52:17.087Z,21.10
2023-05-24T10:54:25.653Z,21.30
2023-05-24T10:56:34.396Z,21.60
2023-05-24T10:59:03.800Z,21.80
2023-05-24T11:01:14.958Z,22.00
2023-05-24T11:03:28.068Z,22.40
2023-05-24T11:05:37.285Z,22.50
2023-05-24T11:07:48.168Z,22.40
2023-05-24T11:09:59.423Z,22.30
2023-05-24T11:12:09.560Z,22.30
2023-05-24T11:14:18.379Z,22.60
2023-05-24T11:16:43.094Z,22.90
2023-05-24T11:19:02.381Z,23.30
2023-05-24T11:21:10.880Z,23.30
2023-05-24T11:23:20.615Z,23.60
2023-05-24T11:25:30.306Z,23.70
2023-05-24T11:27:38.566Z,23.60
2023-05-24T11:29:47.399Z,23.60
2023-05-24T11:31:56.234Z,23.60
2023-05-24T11:34:08.320Z,23.70
2023-05-24T11:36:17.362Z,23.70
2023-05-24T11:38:26.087Z,23.60
2023-05-24T11:40:34.876Z,23.60
2023-05-24T11:42:44.542Z,23.80
2023-05-24T11:44:54.579Z,24.40
2023-05-24T11:47:06.310Z,25.00
2023-05-24T11:49:18.662Z,25.70
2023-05-24T11:51:32.922Z,25.80
2023-05-24T11:53:42.286Z,25.90
2023-05-24T11:55:51.311Z,26.00
2023-05-24T11:58:02.934Z,25.90
2023-05-24T12:00:18.659Z,25.70
2023-05-24T12:02:26.375Z,25.50
2023-05-24T12:04:38.901Z,25.20
2023-05-24T12:06:47.868Z,24.70
2023-05-24T12:08:56.738Z,24.10
2023-05-24T12:11:07.155Z,23.80
2023-05-24T12:13:27.104Z,23.50
2023-05-24T12:15:37.005Z,23.70
2023-05-24T12:17:46.164Z,23.80
2023-05-24T12:19:58.161Z,23.80
2023-05-24T12:22:11.464Z,23.30
2023-05-24T12:24:21.298Z,23.10
2023-05-24T12:26:29.964Z,22.90
2023-05-24T12:28:42.560Z,22.80
2023-05-24T12:30:51.103Z,23.10
2023-05-24T12:33:01.088Z,23.20
2023-05-24T12:35:16.888Z,23.50
2023-05-24T12:37:28.138Z,23.50
2023-05-24T12:39:37.178Z,22.90
2023-05-24T12:41:50.138Z,22.60
2023-05-24T12:44:00.356Z,22.20
2023-05-24T12:46:09.910Z,21.80
2023-05-24T12:48:21.990Z,21.70
2023-05-24T12:50:34.021Z,21.60
2023-05-24T12:52:43.266Z,21.80
2023-05-24T12:54:53.222Z,21.90
2023-05-24T12:57:05.313Z,21.80
2023-05-24T12:59:14.059Z,22.00
2023-05-24T13:01:22.961Z,22.30
2023-05-24T13:03:32.684Z,22.50
2023-05-24T13:05:43.510Z,22.70
2023-05-24T13:07:52.948Z,22.80
2023-05-24T13:10:05.368Z,23.00
2023-05-24T13:12:15.828Z,23.10
2023-05-24T13:14:25.563Z,23.20
2023-05-24T13:16:34.730Z,22.60
2023-05-24T13:18:43.914Z,22.40
2023-05-24T13:20:56.729Z,22.10
2023-05-24T13:23:06.417Z,21.80
2023-05-24T13:25:16.210Z,21.60
2023-05-24T13:27:25.483Z,21.50
2023-05-24T13:29:45.579Z,21.80
2023-05-24T13:31:58.355Z,22.00
2023-05-24T13:34:08.321Z,22.30
2023-05-24T13:36:21.474Z,22.50
2023-05-24T13:38:30.489Z,22.70
2023-05-24T13:40:41.771Z,22.90
2023-05-24T13:42:51.151Z,23.10
2023-05-24T13:45:00.986Z,23.00
2023-05-24T13:47:10.767Z,22.90
2023-05-24T13:49:19.611Z,22.90
2023-05-24T13:51:29.998Z,22.90
2023-05-24T13:53:40.301Z,23.10
2023-05-24T13:55:53.018Z,22.90
2023-05-24T13:58:03.411Z,22.80
2023-05-24T14:00:16.011Z,22.90
2023-05-24T14:02:25.587Z,23.00
2023-05-24T14:04:35.415Z,23.10
2023-05-24T14:06:46.641Z,23.40
2023-05-24T14:08:58.452Z,23.70
2023-05-24T14:11:07.532Z,23.90
2023-05-24T14:13:51.558Z,24.20
2023-05-24T14:15:46.850Z,24.40
2023-05-24T14:17:56.450Z,24.70
2023-05-24T14:20:05.294Z,25.10
2023-05-24T14:22:22.062Z,25.20
2023-05-24T14:24:30.766Z,25.00
2023-05-24T14:26:40.690Z,24.70
2023-05-24T14:28:48.686Z,24.50
2023-05-24T14:30:58.563Z,24.30
2023-05-24T14:33:08.738Z,24.30
2023-05-24T14:35:17.448Z,24.10
2023-05-24T14:37:32.355Z,24.00
2023-05-24T14:39:45.701Z,24.40
2023-05-24T14:41:56.041Z,25.00
2023-05-24T14:44:11.228Z,25.40
2023-05-24T14:46:26.609Z,25.70
2023-05-24T14:48:35.202Z,25.80
2023-05-24T14:50:45.260Z,26.10
2023-05-24T14:52:56.131Z,26.30
2023-05-24T14:55:05.064Z,26.70
2023-05-24T14:57:19.043Z,27.00
2023-05-24T14:59:28.299Z,27.20
2023-05-24T15:01:37.137Z,27.10
2023-05-24T15:03:46.948Z,27.10
2023-05-24T15:05:58.436Z,27.10
2023-05-24T15:08:10.308Z,26.70
2023-05-24T15:10:22.610Z,26.50
2023-05-24T15:12:31.296Z,25.80
2023-05-24T15:14:39.929Z,25.10
2023-05-24T15:16:51.055Z,24.40
2023-05-24T15:19:00.492Z,23.90
2023-05-24T15:21:09.537Z,23.70
2023-05-24T15:23:21.403Z,23.50
2023-05-24T15:25:34.337Z,23.50
2023-05-24T15:27:44.005Z,23.80
2023-05-24T15:29:55.564Z,24.20
2023-05-24T15:32:06.679Z,24.50
2023-05-24T15:34:15.320Z,24.80
2023-05-24T15:36:23.983Z,25.00
2023-05-24T15:38:35.105Z,25.00
2023-05-24T15:40:45.879Z,25.10
2023-05-24T15:42:55.448Z,25.30
2023-05-24T15:45:07.543Z,25.20
2023-05-24T15:47:17.335Z,24.70
2023-05-24T15:49:27.696Z,24.10
2023-05-24T15:53:51.165Z,23.30
2023-05-24T15:56:01.637Z,23.00
2023-05-24T15:58:11.639Z,22.80
2023-05-24T16:00:20.886Z,22.70
2023-05-24T16:02:31.889Z,23.00
2023-05-24T16:04:41.823Z,23.30
2023-05-24T16:06:50.953Z,23.40
2023-05-24T16:09:07.230Z,23.50
2023-05-24T16:11:18.726Z,23.70
2023-05-24T16:13:29.197Z,23.80
2023-05-24T16:15:39.106Z,24.00
2023-05-24T16:17:48.357Z,24.60
2023-05-24T16:19:57.690Z,25.10
2023-05-24T16:22:06.665Z,25.60
2023-05-24T16:24:18.950Z,25.60
2023-05-24T16:26:28.917Z,25.70
2023-05-24T16:28:37.502Z,26.00
2023-05-24T16:30:47.778Z,25.90
2023-05-24T16:32:55.918Z,25.60
2023-05-24T16:35:04.203Z,25.40
2023-05-24T16:37:12.594Z,25.40
2023-05-24T16:39:22.804Z,25.70
2023-05-24T16:41:39.514Z,26.00
2023-05-24T16:43:48.855Z,26.10
2023-05-24T16:45:57.790Z,26.60
2023-05-24T16:48:08.106Z,27.00
2023-05-24T16:50:19.364Z,27.20
2023-05-24T16:52:28.906Z,27.30
2023-05-24T16:54:40.919Z,27.60
2023-05-24T16:56:50.926Z,27.50
2023-05-24T16:58:59.732Z,26.90
2023-05-24T17:01:07.806Z,26.70
2023-05-24T17:03:18.185Z,26.20
2023-05-24T17:05:26.642Z,25.50
2023-05-24T17:07:35.508Z,24.80
2023-05-24T17:09:50.178Z,24.20
2023-05-24T17:11:59.177Z,23.70
2023-05-24T17:14:11.618Z,23.40
2023-05-24T17:16:21.476Z,23.20
2023-05-24T17:18:33.935Z,22.90
2023-05-24T17:20:44.665Z,22.50
2023-05-24T17:22:57.796Z,22.00
2023-05-24T17:25:08.903Z,21.70
2023-05-24T17:27:20.010Z,21.50
2023-05-24T17:29:31.591Z,21.20
2023-05-24T17:31:41.616Z,20.90
2023-05-24T17:33:50.330Z,20.80
2023-05-24T17:35:59.494Z,20.70
2023-05-24T17:38:08.190Z,20.60
2023-05-24T17:40:19.776Z,20.40
2023-05-24T17:42:28.709Z,20.20
2023-05-24T17:44:37.016Z,20.10
2023-05-24T17:46:44.578Z,20.20
2023-05-24T17:48:53.710Z,20.70
2023-05-24T17:51:02.814Z,21.20
2023-05-24T17:53:23.077Z,21.50
2023-05-24T17:55:41.375Z,21.30
2023-05-24T17:57:49.785Z,21.10
2023-05-24T17:59:58.666Z,20.80
2023-05-24T18:02:06.874Z,20.50
2023-05-24T18:04:13.346Z,20.10
2023-05-24T18:06:21.693Z,19.90
2023-05-24T18:08:31.076Z,19.80
2023-05-24T18:10:42.812Z,19.60
2023-05-24T18:12:52.137Z,19.40
2023-05-24T18:15:00.481Z,19.30
2023-05-24T18:17:09.704Z,19.20
2023-05-24T18:19:19.539Z,19.10
2023-05-24T18:21:34.921Z,19.10
2023-05-24T18:23:44.271Z,19.10
2023-05-24T18:26:01.720Z,19.00
2023-05-24T18:28:15.048Z,19.00
2023-05-24T18:30:23.165Z,18.90
2023-05-24T18:32:35.868Z,18.90
2023-05-24T18:34:44.591Z,18.90
2023-05-24T18:36:53.989Z,18.90
2023-05-24T18:39:01.491Z,18.90
2023-05-24T18:41:14.150Z,18.80
2023-05-24T18:43:23.392Z,18.70
2023-05-24T18:45:32.018Z,18.60
2023-05-24T18:47:41.886Z,18.50
2023-05-24T18:49:50.225Z,18.30
2023-05-24T18:51:58.984Z,18.20
2023-05-24T18:54:02.714Z,18.10
2023-05-24T18:56:07.967Z,17.90
2023-05-24T18:58:11.330Z,17.80
2023-05-24T19:00:15.395Z,17.70
2023-05-24T19:02:19.384Z,17.60
2023-05-24T19:04:22.976Z,17.40
2023-05-24T19:06:26.991Z,17.30
2023-05-24T19:08:30.964Z,17.20
2023-05-24T19:10:34.540Z,17.10
2023-05-24T19:12:39.767Z,17.00
2023-05-24T19:14:43.467Z,17.00
2023-05-24T19:16:47.735Z,16.80
2023-05-24T19:18:51.380Z,16.80
2023-05-24T19:20:55.323Z,16.70
2023-05-24T19:22:59.356Z,16.70
2023-05-24T19:25:03.282Z,16.60
2023-05-24T19:27:07.851Z,16.50
2023-05-24T19:29:13.221Z,16.40
2023-05-24T19:31:17.587Z,16.30
2023-05-24T19:33:21.392Z,16.20
2023-05-24T19:35:25.392Z,16.20
2023-05-24T19:37:31.842Z,16.10
2023-05-24T19:39:35.897Z,16.10
2023-05-24T19:41:39.771Z,16.00
2023-05-24T19:43:43.639Z,16.00
2023-05-24T19:45:51.918Z,15.90
2023-05-24T19:47:55.987Z,15.90
2023-05-24T19:50:00.125Z,15.80
2023-05-24T19:52:04.522Z,15.70
2023-05-24T19:54:09.395Z,15.60
2023-05-24T19:56:12.996Z,15.50
2023-05-24T19:58:16.860Z,15.50
2023-05-24T20:00:21.462Z,15.40
2023-05-24T20:02:26.743Z,15.30
2023-05-24T20:04:30.427Z,15.30
2023-05-24T20:06:34.369Z,15.20
2023-05-24T20:08:38.058Z,15.20
2023-05-24T20:10:47.348Z,15.20
2023-05-24T20:12:50.919Z,15.10
2023-05-24T20:14:54.460Z,15.00
2023-05-24T20:16:58.253Z,15.00
2023-05-24T20:19:03.515Z,14.90
2023-05-24T20:21:07.482Z,14.90
2023-05-24T20:23:11.489Z,14.80
2023-05-24T20:25:15.096Z,14.90
2023-05-24T20:27:18.771Z,14.90
2023-05-24T20:29:22.359Z,14.90
2023-05-24T20:31:26.013Z,14.80
2023-05-24T20:33:29.682Z,14.80
2023-05-24T20:35:34.798Z,14.80
2023-05-24T20:37:38.759Z,14.70
2023-05-24T20:39:42.486Z,14.70
2023-05-24T20:41:46.081Z,14.70
2023-05-24T20:43:51.574Z,14.70
2023-05-24T20:45:55.590Z,14.70
2023-05-24T20:47:59.550Z,14.60
2023-05-24T20:50:04.099Z,14.70
2023-05-24T20:52:09.619Z,14.60
2023-05-24T20:54:14.133Z,14.60
2023-05-24T20:56:18.117Z,14.60
2023-05-24T20:58:21.914Z,14.50
2023-05-24T21:00:25.628Z,14.50
2023-05-24T21:02:29.688Z,14.50
2023-05-24T21:04:33.450Z,14.50
2023-05-24T21:06:42.701Z,14.40
2023-05-24T21:08:47.729Z,14.40
2023-05-24T21:10:51.833Z,14.40
2023-05-24T21:12:55.352Z,14.40
2023-05-24T21:14:58.961Z,14.40
2023-05-24T21:17:02.476Z,14.40
2023-05-24T21:19:06.117Z,14.40
2023-05-24T21:21:09.753Z,14.50
2023-05-24T21:23:18.862Z,14.50
2023-05-24T21:25:23.933Z,14.40
2023-05-24T21:27:27.858Z,14.50
2023-05-24T21:29:31.539Z,14.50
2023-05-24T21:31:36.080Z,14.40
2023-05-24T21:33:43.003Z,14.40
2023-05-24T21:35:46.552Z,14.40
2023-05-24T21:37:57.924Z,14.40
2023-05-24T21:40:01.478Z,14.30
2023-05-24T21:42:07.145Z,14.30
2023-05-24T21:44:10.794Z,14.30
2023-05-24T21:46:14.403Z,14.30
2023-05-24T21:48:17.943Z,14.30
2023-05-24T21:50:21.554Z,14.20
2023-05-24T21:52:25.070Z,14.30
2023-05-24T21:54:30.804Z,14.20
2023-05-24T21:56:34.616Z,14.20
2023-05-24T21:58:39.712Z,14.10
2023-05-24T22:00:43.548Z,14.10
2023-05-24T22:02:47.535Z,14.10
2023-05-24T22:04:51.161Z,14.10
2023-05-24T22:06:54.759Z,14.10
2023-05-24T22:09:02.204Z,14.10
2023-05-24T22:11:05.961Z,14.10
2023-05-24T22:13:09.564Z,14.10
2023-05-24T22:15:14.690Z,14.10
2023-05-24T22:17:19.366Z,14.10
2023-05-24T22:19:38.880Z,14.10
2023-05-24T23:49:01.704Z,13.00
2023-05-24T23:51:05.901Z,13.00
2023-05-24T23:53:09.350Z,13.00
2023-05-24T23:55:12.950Z,13.00
2023-05-24T23:57:17.616Z,13.00
2023-05-24T23:59:21.108Z,13.00
